Central Il Rgnl Arpt at Bloomington-Normal Airport
KBMI : now visible

Airfield :











YOU CAN JOIN US ON...

 
LOGIN :

Register | Disclaimer

   EN    FR    IT 

 









Legend :    VFR   Marginal VFR   IFR   Intensive IFR   Very Intensive IFR
Visi :
Ceiling :
>= 8 km
>= 3000ft
5 to 8 km
1000 to 3000 ft
1500m to 5 km
500 to 1000 ft
800 to 1500m
200 to 500 ft
< 800m
< 200 ft
Symbols :   Thunderstorms  Fog  Heavy snow  Heavy precipitations  Wind > 20 kt






- Airport Elevation : 871 ft
- IATA code : BMI


KBMI - Central Il Rgnl Arpt at Bloomington-Normal

CURRENT METAR :
  • 232356Z 32014G21KT 10SM -RA OVC014 06/05 A3020 RMK AO2 RAB53 SLP225 P0000 60000 T00610050 10072 20061 53041

EXPIRED METARs :
  • 232256Z 34014KT 10SM OVC014 06/04 A3016 RMK AO2 SLP211 T00610044
  • 232156Z 34016G20KT 10SM OVC012 06/05 A3011 RMK AO2 PK WND 33026/2120 RAB07E21 SLP193 P0000 T00610050

TAF KBMI
Valid from the 24 at 00:00 until the 25 at 00:00 UTC


232320Z 2400/2424 34014G22KT P6SM OVC014
FM240300 35014KT P6SM BKN014
FM241500 04007KT P6SM SCT025
KZAU FIR / North America



MET'MAP, your aeronautical weather chart ! - Copyright ORBIFLY December 2007 - Disclaimer

ORBIFLY MET'MAP TEAM :

Programming & Development : Alexandra Zaïnal
Concept & original design : Baudouin d'Aumeries
Assistance for programming : Marc-Olivier Méhu
Technical & hardware support : Manuel Goepfert

Contact : metmap@orbifly.com




SOURCES & CREDITS :

   NOAA       Earth
Advisory